sensor_id;sensor_type;location;lat;lon;timestamp;pressure;altitude;pressure_sealevel;temperature;humidity
81897;BME280;71360;43.506;1.500;2024-03-08T00:01:09;97657.84;;;10.51;72.63
81897;BME280;71360;43.506;1.500;2024-03-08T00:03:35;97662.47;;;10.49;72.39
81897;BME280;71360;43.506;1.500;2024-03-08T00:06:00;97662.34;;;10.50;72.46
81897;BME280;71360;43.506;1.500;2024-03-08T00:08:26;97678.38;;;10.50;72.28
81897;BME280;71360;43.506;1.500;2024-03-08T00:10:52;97680.06;;;10.51;72.56
81897;BME280;71360;43.506;1.500;2024-03-08T00:13:17;97685.41;;;10.51;72.66
81897;BME280;71360;43.506;1.500;2024-03-08T00:15:43;97691.50;;;10.53;72.39
81897;BME280;71360;43.506;1.500;2024-03-08T00:18:09;97679.84;;;10.54;72.41
81897;BME280;71360;43.506;1.500;2024-03-08T00:20:35;97687.75;;;10.56;72.63
81897;BME280;71360;43.506;1.500;2024-03-08T00:23:01;97670.50;;;10.60;72.55
81897;BME280;71360;43.506;1.500;2024-03-08T00:25:26;97674.91;;;10.61;71.76
81897;BME280;71360;43.506;1.500;2024-03-08T00:27:52;97673.06;;;10.61;71.96
81897;BME280;71360;43.506;1.500;2024-03-08T00:30:22;97663.22;;;10.62;71.95
81897;BME280;71360;43.506;1.500;2024-03-08T00:32:48;97659.59;;;10.63;72.09
81897;BME280;71360;43.506;1.500;2024-03-08T00:35:14;97637.25;;;10.64;72.03
81897;BME280;71360;43.506;1.500;2024-03-08T00:37:40;97642.59;;;10.64;71.83
81897;BME280;71360;43.506;1.500;2024-03-08T00:40:07;97628.41;;;10.63;71.94
81897;BME280;71360;43.506;1.500;2024-03-08T00:42:34;97630.06;;;10.64;71.69
81897;BME280;71360;43.506;1.500;2024-03-08T00:45:00;97623.06;;;10.63;71.82
81897;BME280;71360;43.506;1.500;2024-03-08T00:47:25;97627.53;;;10.63;71.36
81897;BME280;71360;43.506;1.500;2024-03-08T00:49:52;97621.34;;;10.62;71.53
81897;BME280;71360;43.506;1.500;2024-03-08T00:52:18;97624.97;;;10.61;71.29
81897;BME280;71360;43.506;1.500;2024-03-08T00:54:44;97621.34;;;10.62;71.29
81897;BME280;71360;43.506;1.500;2024-03-08T00:57:11;97617.72;;;10.63;71.26
81897;BME280;71360;43.506;1.500;2024-03-08T00:59:40;97620.47;;;10.62;71.16
81897;BME280;71360;43.506;1.500;2024-03-08T01:02:05;97631.16;;;10.62;71.07
81897;BME280;71360;43.506;1.500;2024-03-08T01:04:31;97622.31;;;10.61;71.12
81897;BME280;71360;43.506;1.500;2024-03-08T01:06:58;97638.34;;;10.61;71.50
81897;BME280;71360;43.506;1.500;2024-03-08T01:09:25;97628.50;;;10.62;71.57
81897;BME280;71360;43.506;1.500;2024-03-08T01:11:55;97619.63;;;10.61;71.41
81897;BME280;71360;43.506;1.500;2024-03-08T01:14:21;97617.81;;;10.62;71.54
81897;BME280;71360;43.506;1.500;2024-03-08T01:16:54;97618.78;;;10.61;71.45
81897;BME280;71360;43.506;1.500;2024-03-08T01:19:20;97616.00;;;10.62;71.45
81897;BME280;71360;43.506;1.500;2024-03-08T01:21:45;97606.16;;;10.63;71.67
81897;BME280;71360;43.506;1.500;2024-03-08T01:24:11;97611.50;;;10.63;71.58
81897;BME280;71360;43.506;1.500;2024-03-08T01:26:37;97598.25;;;10.61;71.56
81897;BME280;71360;43.506;1.500;2024-03-08T01:29:03;97595.59;;;10.61;71.41
81897;BME280;71360;43.506;1.500;2024-03-08T01:31:30;97592.91;;;10.61;71.61
81897;BME280;71360;43.506;1.500;2024-03-08T01:33:56;97595.59;;;10.61;71.63
81897;BME280;71360;43.506;1.500;2024-03-08T01:36:22;97602.75;;;10.61;71.69
81897;BME280;71360;43.506;1.500;2024-03-08T01:38:47;97599.09;;;10.62;72.04
81897;BME280;71360;43.506;1.500;2024-03-08T01:41:13;97593.16;;;10.58;71.77
81897;BME280;71360;43.506;1.500;2024-03-08T01:43:39;97588.53;;;10.60;71.76
81897;BME280;71360;43.506;1.500;2024-03-08T01:46:05;97584.06;;;10.61;71.68
81897;BME280;71360;43.506;1.500;2024-03-08T01:48:31;97577.13;;;10.58;71.81
81897;BME280;71360;43.506;1.500;2024-03-08T01:50:57;97578.84;;;10.59;71.47
81897;BME280;71360;43.506;1.500;2024-03-08T01:53:27;97571.66;;;10.60;72.16
81897;BME280;71360;43.506;1.500;2024-03-08T01:55:57;97571.66;;;10.60;71.52
81897;BME280;71360;43.506;1.500;2024-03-08T01:58:23;97567.41;;;10.57;71.61
81897;BME280;71360;43.506;1.500;2024-03-08T02:00:50;97556.00;;;10.55;71.77
81897;BME280;71360;43.506;1.500;2024-03-08T02:03:18;97545.31;;;10.55;71.62
81897;BME280;71360;43.506;1.500;2024-03-08T02:05:44;97544.44;;;10.55;72.05
81897;BME280;71360;43.506;1.500;2024-03-08T02:08:10;97533.88;;;10.53;72.12
81897;BME280;71360;43.506;1.500;2024-03-08T02:10:49;97526.84;;;10.52;71.44
81897;BME280;71360;43.506;1.500;2024-03-08T02:13:15;97512.03;;;10.48;72.04
81897;BME280;71360;43.506;1.500;2024-03-08T02:15:56;97513.84;;;10.47;71.81
81897;BME280;71360;43.506;1.500;2024-03-08T02:18:24;97495.41;;;10.44;71.74
81897;BME280;71360;43.506;1.500;2024-03-08T02:20:54;97491.88;;;10.44;71.45
81897;BME280;71360;43.506;1.500;2024-03-08T02:23:20;97483.13;;;10.42;71.92
81897;BME280;71360;43.506;1.500;2024-03-08T02:25:46;97484.09;;;10.41;71.69
81897;BME280;71360;43.506;1.500;2024-03-08T02:28:13;97475.34;;;10.39;71.42
81897;BME280;71360;43.506;1.500;2024-03-08T02:30:39;97475.59;;;10.36;71.73
81897;BME280;71360;43.506;1.500;2024-03-08T02:33:05;97471.22;;;10.35;71.81
81897;BME280;71360;43.506;1.500;2024-03-08T02:35:33;97457.84;;;10.35;71.46
81897;BME280;71360;43.506;1.500;2024-03-08T02:37:59;97454.44;;;10.33;71.34
81897;BME280;71360;43.506;1.500;2024-03-08T02:40:25;97456.38;;;10.30;71.60
81897;BME280;71360;43.506;1.500;2024-03-08T02:42:51;97449.34;;;10.29;71.26
81897;BME280;71360;43.506;1.500;2024-03-08T02:45:16;97444.00;;;10.29;71.39
81897;BME280;71360;43.506;1.500;2024-03-08T02:47:42;97446.69;;;10.29;71.12
81897;BME280;71360;43.506;1.500;2024-03-08T02:50:08;97451.28;;;10.27;71.02
81897;BME280;71360;43.506;1.500;2024-03-08T02:52:34;97445.09;;;10.27;71.74
81897;BME280;71360;43.506;1.500;2024-03-08T02:55:01;97438.88;;;10.26;71.10
81897;BME280;71360;43.506;1.500;2024-03-08T02:57:26;97434.53;;;10.25;71.60
81897;BME280;71360;43.506;1.500;2024-03-08T02:59:53;97447.88;;;10.25;71.47
81897;BME280;71360;43.506;1.500;2024-03-08T03:02:19;97427.63;;;10.23;71.58
81897;BME280;71360;43.506;1.500;2024-03-08T03:04:45;97436.59;;;10.22;71.25
81897;BME280;71360;43.506;1.500;2024-03-08T03:07:10;97437.44;;;10.22;71.30
81897;BME280;71360;43.506;1.500;2024-03-08T03:09:36;97416.06;;;10.22;71.31
81897;BME280;71360;43.506;1.500;2024-03-08T03:12:02;97429.41;;;10.22;71.42
81897;BME280;71360;43.506;1.500;2024-03-08T03:14:28;97438.28;;;10.23;71.34
81897;BME280;71360;43.506;1.500;2024-03-08T03:16:54;97432.22;;;10.21;71.51
81897;BME280;71360;43.506;1.500;2024-03-08T03:19:20;97434.03;;;10.20;71.55
81897;BME280;71360;43.506;1.500;2024-03-08T03:21:46;97428.72;;;10.20;71.20
81897;BME280;71360;43.506;1.500;2024-03-08T03:24:12;97428.72;;;10.20;71.32
81897;BME280;71360;43.506;1.500;2024-03-08T03:26:41;97440.22;;;10.21;71.03
81897;BME280;71360;43.506;1.500;2024-03-08T03:29:09;97426.88;;;10.21;71.25
81897;BME280;71360;43.506;1.500;2024-03-08T03:31:36;97428.72;;;10.20;71.04
81897;BME280;71360;43.506;1.500;2024-03-08T03:34:02;97401.13;;;10.20;71.45
81897;BME280;71360;43.506;1.500;2024-03-08T03:36:34;97416.31;;;10.19;70.91
81897;BME280;71360;43.506;1.500;2024-03-08T03:39:03;97392.41;;;10.18;71.59
81897;BME280;71360;43.506;1.500;2024-03-08T03:41:36;97386.22;;;10.17;71.30
81897;BME280;71360;43.506;1.500;2024-03-08T03:44:02;97373.72;;;10.18;71.27
81897;BME280;71360;43.506;1.500;2024-03-08T03:46:28;97364.84;;;10.17;70.99
81897;BME280;71360;43.506;1.500;2024-03-08T03:48:56;97362.31;;;10.16;70.71
81897;BME280;71360;43.506;1.500;2024-03-08T03:51:21;97363.19;;;10.16;70.55
81897;BME280;71360;43.506;1.500;2024-03-08T03:53:47;97356.13;;;10.15;71.21
81897;BME280;71360;43.506;1.500;2024-03-08T03:56:13;97354.41;;;10.14;70.74
81897;BME280;71360;43.506;1.500;2024-03-08T03:58:39;97358.78;;;10.15;70.80
81897;BME280;71360;43.506;1.500;2024-03-08T04:01:05;97361.47;;;10.15;71.09
81897;BME280;71360;43.506;1.500;2024-03-08T04:03:30;97361.47;;;10.15;71.12
81897;BME280;71360;43.506;1.500;2024-03-08T04:05:56;97370.44;;;10.14;70.92
81897;BME280;71360;43.506;1.500;2024-03-08T04:08:22;97375.78;;;10.14;70.50
81897;BME280;71360;43.506;1.500;2024-03-08T04:10:49;97372.41;;;10.12;71.24
81897;BME280;71360;43.506;1.500;2024-03-08T04:13:15;97390.09;;;10.13;70.69
81897;BME280;71360;43.506;1.500;2024-03-08T04:15:41;97405.13;;;10.14;71.18
81897;BME280;71360;43.506;1.500;2024-03-08T04:18:09;97399.94;;;10.12;71.18
81897;BME280;71360;43.506;1.500;2024-03-08T04:20:35;97384.03;;;10.11;70.65
81897;BME280;71360;43.506;1.500;2024-03-08T04:23:02;97384.75;;;10.13;70.94
81897;BME280;71360;43.506;1.500;2024-03-08T04:25:27;97384.66;;;10.14;70.87
81897;BME280;71360;43.506;1.500;2024-03-08T04:27:53;97380.16;;;10.15;70.64
81897;BME280;71360;43.506;1.500;2024-03-08T04:30:18;97380.16;;;10.15;71.15
81897;BME280;71360;43.506;1.500;2024-03-08T04:32:46;97383.66;;;10.16;70.99
81897;BME280;71360;43.506;1.500;2024-03-08T04:35:12;97373.84;;;10.16;71.32
81897;BME280;71360;43.506;1.500;2024-03-08T04:37:38;97366.56;;;10.18;71.12
81897;BME280;71360;43.506;1.500;2024-03-08T04:40:05;97362.94;;;10.19;71.45
81897;BME280;71360;43.506;1.500;2024-03-08T04:42:31;97375.31;;;10.20;71.81
81897;BME280;71360;43.506;1.500;2024-03-08T04:44:58;97375.19;;;10.22;71.65
81897;BME280;71360;43.506;1.500;2024-03-08T04:47:24;97364.50;;;10.22;71.61
81897;BME280;71360;43.506;1.500;2024-03-08T04:49:50;97358.91;;;10.25;71.34
81897;BME280;71360;43.506;1.500;2024-03-08T04:52:16;97343.63;;;10.27;71.62
81897;BME280;71360;43.506;1.500;2024-03-08T04:54:42;97351.53;;;10.28;71.30
81897;BME280;71360;43.506;1.500;2024-03-08T04:57:08;97351.66;;;10.27;71.53
81897;BME280;71360;43.506;1.500;2024-03-08T04:59:33;97335.50;;;10.28;71.90
81897;BME280;71360;43.506;1.500;2024-03-08T05:01:59;97333.53;;;10.30;71.56
81897;BME280;71360;43.506;1.500;2024-03-08T05:04:25;97333.41;;;10.32;71.44
81897;BME280;71360;43.506;1.500;2024-03-08T05:06:50;97333.41;;;10.32;71.54
81897;BME280;71360;43.506;1.500;2024-03-08T05:09:16;97314.53;;;10.35;71.50
81897;BME280;71360;43.506;1.500;2024-03-08T05:11:43;97310.03;;;10.36;71.70
81897;BME280;71360;43.506;1.500;2024-03-08T05:14:09;97320.72;;;10.36;71.50
81897;BME280;71360;43.506;1.500;2024-03-08T05:16:35;97308.94;;;10.38;71.92
81897;BME280;71360;43.506;1.500;2024-03-08T05:19:02;97305.31;;;10.39;71.64
81897;BME280;71360;43.506;1.500;2024-03-08T05:21:27;97295.47;;;10.40;71.56
81897;BME280;71360;43.506;1.500;2024-03-08T05:23:54;97285.63;;;10.40;71.84
81897;BME280;71360;43.506;1.500;2024-03-08T05:26:20;97281.13;;;10.41;71.58
81897;BME280;71360;43.506;1.500;2024-03-08T05:28:47;97269.50;;;10.42;72.24
81897;BME280;71360;43.506;1.500;2024-03-08T05:31:20;97277.38;;;10.43;71.81
81897;BME280;71360;43.506;1.500;2024-03-08T05:33:48;97275.53;;;10.44;72.25
81897;BME280;71360;43.506;1.500;2024-03-08T05:36:14;97274.56;;;10.45;72.16
81897;BME280;71360;43.506;1.500;2024-03-08T05:38:45;97268.13;;;10.47;71.94
81897;BME280;71360;43.506;1.500;2024-03-08T05:41:10;97273.34;;;10.49;72.23
81897;BME280;71360;43.506;1.500;2024-03-08T05:43:42;97284.75;;;10.51;71.84
81897;BME280;71360;43.506;1.500;2024-03-08T05:46:09;97273.94;;;10.53;72.00
81897;BME280;71360;43.506;1.500;2024-03-08T05:48:37;97289.13;;;10.52;72.51
81897;BME280;71360;43.506;1.500;2024-03-08T05:51:03;97297.00;;;10.54;72.49
81897;BME280;71360;43.506;1.500;2024-03-08T05:53:28;97303.91;;;10.56;72.39
81897;BME280;71360;43.506;1.500;2024-03-08T05:55:58;97317.88;;;10.60;72.55
81897;BME280;71360;43.506;1.500;2024-03-08T05:58:24;97314.25;;;10.61;72.95
81897;BME280;71360;43.506;1.500;2024-03-08T06:00:50;97306.09;;;10.62;73.02
81897;BME280;71360;43.506;1.500;2024-03-08T06:03:15;97314.13;;;10.62;73.11
81897;BME280;71360;43.506;1.500;2024-03-08T06:05:41;97327.22;;;10.66;73.12
81897;BME280;71360;43.506;1.500;2024-03-08T06:08:07;97332.44;;;10.67;73.06
81897;BME280;71360;43.506;1.500;2024-03-08T06:10:33;97332.44;;;10.67;73.53
81897;BME280;71360;43.506;1.500;2024-03-08T06:12:59;97309.13;;;10.69;73.62
81897;BME280;71360;43.506;1.500;2024-03-08T06:15:25;97324.16;;;10.70;73.95
81897;BME280;71360;43.506;1.500;2024-03-08T06:17:51;97325.03;;;10.71;74.02
81897;BME280;71360;43.506;1.500;2024-03-08T06:20:18;97328.31;;;10.74;73.97
81897;BME280;71360;43.506;1.500;2024-03-08T06:22:43;97326.47;;;10.75;74.10
81897;BME280;71360;43.506;1.500;2024-03-08T06:25:11;97324.63;;;10.75;74.19
81897;BME280;71360;43.506;1.500;2024-03-08T06:27:42;97335.94;;;10.79;74.07
81897;BME280;71360;43.506;1.500;2024-03-08T06:30:09;97327.06;;;10.78;74.22
81897;BME280;71360;43.506;1.500;2024-03-08T06:32:35;97333.88;;;10.83;74.15
81897;BME280;71360;43.506;1.500;2024-03-08T06:35:02;97312.59;;;10.81;74.63
81897;BME280;71360;43.506;1.500;2024-03-08T06:37:32;97334.09;;;10.79;75.20
81897;BME280;71360;43.506;1.500;2024-03-08T06:39:57;97342.13;;;10.79;75.00
81897;BME280;71360;43.506;1.500;2024-03-08T06:42:23;97351.97;;;10.79;75.33
81897;BME280;71360;43.506;1.500;2024-03-08T06:44:49;97327.06;;;10.78;75.53
81897;BME280;71360;43.506;1.500;2024-03-08T06:47:18;97351.00;;;10.80;75.54
81897;BME280;71360;43.506;1.500;2024-03-08T06:49:43;97339.56;;;10.78;75.89
81897;BME280;71360;43.506;1.500;2024-03-08T06:52:12;97353.81;;;10.78;75.43
81897;BME280;71360;43.506;1.500;2024-03-08T06:54:37;97376.28;;;10.76;76.13
81897;BME280;71360;43.506;1.500;2024-03-08T06:57:07;97376.28;;;10.76;75.64
81897;BME280;71360;43.506;1.500;2024-03-08T06:59:32;97379.06;;;10.74;75.99
81897;BME280;71360;43.506;1.500;2024-03-08T07:01:58;97377.38;;;10.73;76.29
81897;BME280;71360;43.506;1.500;2024-03-08T07:04:25;97397.28;;;10.69;76.39
81897;BME280;71360;43.506;1.500;2024-03-08T07:06:57;97407.84;;;10.71;76.82
81897;BME280;71360;43.506;1.500;2024-03-08T07:09:24;97425.59;;;10.72;76.46
81897;BME280;71360;43.506;1.500;2024-03-08T07:11:50;97402.50;;;10.71;76.35
81897;BME280;71360;43.506;1.500;2024-03-08T07:14:23;97427.38;;;10.71;77.10
81897;BME280;71360;43.506;1.500;2024-03-08T07:16:49;97415.88;;;10.71;76.86
81897;BME280;71360;43.506;1.500;2024-03-08T07:19:16;97416.84;;;10.70;77.22
81897;BME280;71360;43.506;1.500;2024-03-08T07:21:43;97436.28;;;10.72;77.58
81897;BME280;71360;43.506;1.500;2024-03-08T07:24:10;97430.19;;;10.70;77.68
81897;BME280;71360;43.506;1.500;2024-03-08T07:27:05;97422.31;;;10.68;77.32
81897;BME280;71360;43.506;1.500;2024-03-08T07:29:34;97432.72;;;10.71;77.56
81897;BME280;71360;43.506;1.500;2024-03-08T07:32:00;97434.44;;;10.72;78.01
81897;BME280;71360;43.506;1.500;2024-03-08T07:34:26;97420.25;;;10.72;77.55
81897;BME280;71360;43.506;1.500;2024-03-08T07:36:51;97409.44;;;10.73;78.38
81897;BME280;71360;43.506;1.500;2024-03-08T07:39:17;97422.19;;;10.70;78.08
81897;BME280;71360;43.506;1.500;2024-03-08T07:41:42;97416.84;;;10.70;78.46
81897;BME280;71360;43.506;1.500;2024-03-08T07:44:08;97397.50;;;10.66;78.29
81897;BME280;71360;43.506;1.500;2024-03-08T07:46:34;97398.63;;;10.63;78.66
81897;BME280;71360;43.506;1.500;2024-03-08T07:49:00;97389.03;;;10.61;78.56
81897;BME280;71360;43.506;1.500;2024-03-08T07:51:26;97378.34;;;10.61;79.12
81897;BME280;71360;43.506;1.500;2024-03-08T07:53:51;97382.84;;;10.60;79.14
81897;BME280;71360;43.506;1.500;2024-03-08T07:56:17;97360.75;;;10.58;79.47
81897;BME280;71360;43.506;1.500;2024-03-08T07:58:44;97347.53;;;10.57;79.48
81897;BME280;71360;43.506;1.500;2024-03-08T08:01:17;97346.78;;;10.55;79.83
81897;BME280;71360;43.506;1.500;2024-03-08T08:03:43;97337.19;;;10.52;80.08
81897;BME280;71360;43.506;1.500;2024-03-08T08:06:08;97344.25;;;10.53;79.76
81897;BME280;71360;43.506;1.500;2024-03-08T08:08:35;97343.28;;;10.54;79.95
81897;BME280;71360;43.506;1.500;2024-03-08T08:11:00;97337.94;;;10.54;79.78
81897;BME280;71360;43.506;1.500;2024-03-08T08:13:27;97332.59;;;10.54;79.83
81897;BME280;71360;43.506;1.500;2024-03-08T08:15:57;97324.56;;;10.54;80.41
81897;BME280;71360;43.506;1.500;2024-03-08T08:18:23;97320.19;;;10.53;80.31
81897;BME280;71360;43.506;1.500;2024-03-08T08:20:51;97321.16;;;10.52;80.29
81897;BME280;71360;43.506;1.500;2024-03-08T08:23:17;97315.81;;;10.52;80.73
81897;BME280;71360;43.506;1.500;2024-03-08T08:25:45;97314.13;;;10.51;80.73
81897;BME280;71360;43.506;1.500;2024-03-08T08:28:11;97326.63;;;10.51;81.07
81897;BME280;71360;43.506;1.500;2024-03-08T08:30:38;97318.50;;;10.52;81.04
81897;BME280;71360;43.506;1.500;2024-03-08T08:33:04;97312.19;;;10.53;81.43
81897;BME280;71360;43.506;1.500;2024-03-08T08:35:31;97322.88;;;10.53;81.36
81897;BME280;71360;43.506;1.500;2024-03-08T08:37:56;97314.13;;;10.51;81.84
81897;BME280;71360;43.506;1.500;2024-03-08T08:40:24;97307.09;;;10.50;81.54
81897;BME280;71360;43.506;1.500;2024-03-08T08:42:51;97303.56;;;10.50;81.40
81897;BME280;71360;43.506;1.500;2024-03-08T08:45:18;97301.88;;;10.49;82.17
81897;BME280;71360;43.506;1.500;2024-03-08T08:47:44;97301.75;;;10.50;81.79
81897;BME280;71360;43.506;1.500;2024-03-08T08:50:10;97287.41;;;10.51;81.61
81897;BME280;71360;43.506;1.500;2024-03-08T08:52:39;97291.06;;;10.50;81.87
81897;BME280;71360;43.506;1.500;2024-03-08T08:55:05;97295.41;;;10.51;81.77
81897;BME280;71360;43.506;1.500;2024-03-08T08:57:32;97308.69;;;10.53;81.83
81897;BME280;71360;43.506;1.500;2024-03-08T08:59:59;97315.81;;;10.52;82.28
81897;BME280;71360;43.506;1.500;2024-03-08T09:02:25;97321.16;;;10.52;82.23
81897;BME280;71360;43.506;1.500;2024-03-08T09:04:51;97331.84;;;10.52;81.91
81897;BME280;71360;43.506;1.500;2024-03-08T09:07:17;97329.56;;;10.47;81.14
81897;BME280;71360;43.506;1.500;2024-03-08T09:09:44;97328.38;;;10.40;80.84
81897;BME280;71360;43.506;1.500;2024-03-08T09:12:10;97339.88;;;10.29;80.15
81897;BME280;71360;43.506;1.500;2024-03-08T09:14:40;97338.16;;;10.17;80.00
81897;BME280;71360;43.506;1.500;2024-03-08T09:17:05;97346.41;;;10.03;79.33
81897;BME280;71360;43.506;1.500;2024-03-08T09:19:34;97336.94;;;9.87;79.17
81897;BME280;71360;43.506;1.500;2024-03-08T09:22:00;97338.13;;;9.72;79.15
81897;BME280;71360;43.506;1.500;2024-03-08T09:24:25;97342.94;;;9.55;79.20
81897;BME280;71360;43.506;1.500;2024-03-08T09:26:51;97333.47;;;9.40;79.42
81897;BME280;71360;43.506;1.500;2024-03-08T09:29:17;97334.50;;;9.26;79.25
81897;BME280;71360;43.506;1.500;2024-03-08T09:31:43;97335.53;;;9.12;80.03
81897;BME280;71360;43.506;1.500;2024-03-08T09:34:08;97329.44;;;8.99;79.77
81897;BME280;71360;43.506;1.500;2024-03-08T09:36:34;97337.38;;;8.87;80.33
81897;BME280;71360;43.506;1.500;2024-03-08T09:39:00;97338.91;;;8.78;80.88
81897;BME280;71360;43.506;1.500;2024-03-08T09:41:26;97344.03;;;8.69;80.89
81897;BME280;71360;43.506;1.500;2024-03-08T09:43:52;97351.75;;;8.60;81.24
81897;BME280;71360;43.506;1.500;2024-03-08T09:46:21;97364.53;;;8.55;81.20
81897;BME280;71360;43.506;1.500;2024-03-08T09:48:48;97372.63;;;8.54;82.04
81897;BME280;71360;43.506;1.500;2024-03-08T09:51:14;97381.69;;;8.51;81.91
81897;BME280;71360;43.506;1.500;2024-03-08T09:53:41;97385.47;;;8.49;82.34
81897;BME280;71360;43.506;1.500;2024-03-08T09:56:07;97390.13;;;8.45;82.46
81897;BME280;71360;43.506;1.500;2024-03-08T09:58:33;97381.38;;;8.43;82.71
81897;BME280;71360;43.506;1.500;2024-03-08T10:00:59;97377.97;;;8.41;82.55
81897;BME280;71360;43.506;1.500;2024-03-08T10:03:30;97379.78;;;8.40;83.35
81897;BME280;71360;43.506;1.500;2024-03-08T10:05:57;97386.91;;;8.40;83.29
81897;BME280;71360;43.506;1.500;2024-03-08T10:08:29;97370.94;;;8.40;83.34
81897;BME280;71360;43.506;1.500;2024-03-08T10:10:55;97345.81;;;8.44;83.70
81897;BME280;71360;43.506;1.500;2024-03-08T10:13:24;97315.25;;;8.50;83.60
81897;BME280;71360;43.506;1.500;2024-03-08T10:15:50;97271.34;;;8.55;83.99
81897;BME280;71360;43.506;1.500;2024-03-08T10:18:16;97233.50;;;8.63;83.61
81897;BME280;71360;43.506;1.500;2024-03-08T10:20:42;97190.31;;;8.71;83.46
81897;BME280;71360;43.506;1.500;2024-03-08T10:23:08;97130.53;;;8.75;83.65
81897;BME280;71360;43.506;1.500;2024-03-08T10:25:35;97097.25;;;8.81;83.38
81897;BME280;71360;43.506;1.500;2024-03-08T10:28:05;97122.69;;;8.85;83.42
81897;BME280;71360;43.506;1.500;2024-03-08T10:30:30;97158.13;;;8.85;83.06
81897;BME280;71360;43.506;1.500;2024-03-08T10:32:56;97200.75;;;8.85;82.79
81897;BME280;71360;43.506;1.500;2024-03-08T10:35:22;97195.56;;;8.84;82.64
81897;BME280;71360;43.506;1.500;2024-03-08T10:37:49;97181.28;;;8.85;82.29
81897;BME280;71360;43.506;1.500;2024-03-08T10:40:24;97186.50;;;8.86;82.61
81897;BME280;71360;43.506;1.500;2024-03-08T10:42:54;97185.41;;;8.89;83.00
81897;BME280;71360;43.506;1.500;2024-03-08T10:45:38;97209.06;;;8.93;82.36
81897;BME280;71360;43.506;1.500;2024-03-08T10:50:53;97263.06;;;9.07;82.85
81897;BME280;71360;43.506;1.500;2024-03-08T10:53:19;97285.41;;;9.17;82.88
81897;BME280;71360;43.506;1.500;2024-03-08T10:55:49;97311.13;;;9.29;83.13
81897;BME280;71360;43.506;1.500;2024-03-08T10:58:20;97315.53;;;9.42;83.16
81897;BME280;71360;43.506;1.500;2024-03-08T11:00:47;97315.44;;;9.55;83.10
81897;BME280;71360;43.506;1.500;2024-03-08T11:06:06;97327.97;;;9.88;82.89
81897;BME280;71360;43.506;1.500;2024-03-08T11:08:33;97316.31;;;10.01;82.05
81897;BME280;71360;43.506;1.500;2024-03-08T11:11:01;97308.34;;;10.12;81.57
81897;BME280;71360;43.506;1.500;2024-03-08T11:16:02;97319.88;;;10.35;81.18
81897;BME280;71360;43.506;1.500;2024-03-08T11:18:33;97341.09;;;10.48;80.71
81897;BME280;71360;43.506;1.500;2024-03-08T11:21:02;97352.13;;;10.55;79.64
81897;BME280;71360;43.506;1.500;2024-03-08T11:23:30;97343.84;;;10.58;80.02
81897;BME280;71360;43.506;1.500;2024-03-08T11:25:56;97347.50;;;10.68;80.55
81897;BME280;71360;43.506;1.500;2024-03-08T11:28:25;97350.25;;;10.78;80.73
81897;BME280;71360;43.506;1.500;2024-03-08T11:33:28;97355.56;;;11.01;80.36
81897;BME280;71360;43.506;1.500;2024-03-08T11:36:10;97347.88;;;11.07;80.01
81897;BME280;71360;43.506;1.500;2024-03-08T11:38:43;97348.22;;;11.14;79.79
81897;BME280;71360;43.506;1.500;2024-03-08T11:41:09;97353.31;;;11.17;79.71
81897;BME280;71360;43.506;1.500;2024-03-08T11:43:42;97349.53;;;11.20;79.41
81897;BME280;71360;43.506;1.500;2024-03-08T11:46:12;97356.44;;;11.22;78.97
81897;BME280;71360;43.506;1.500;2024-03-08T11:48:41;97353.38;;;11.27;79.01
81897;BME280;71360;43.506;1.500;2024-03-08T11:51:08;97336.22;;;11.29;79.01
81897;BME280;71360;43.506;1.500;2024-03-08T11:53:34;97352.00;;;11.32;78.45
81897;BME280;71360;43.506;1.500;2024-03-08T11:56:08;97341.91;;;11.36;78.51
81897;BME280;71360;43.506;1.500;2024-03-08T11:58:34;97360.50;;;11.38;78.49
81897;BME280;71360;43.506;1.500;2024-03-08T12:01:07;97346.88;;;11.41;78.36
81897;BME280;71360;43.506;1.500;2024-03-08T12:03:41;97344.19;;;11.41;78.18
81897;BME280;71360;43.506;1.500;2024-03-08T12:06:10;97331.56;;;11.43;78.05
81897;BME280;71360;43.506;1.500;2024-03-08T12:08:36;97335.66;;;11.47;78.11
81897;BME280;71360;43.506;1.500;2024-03-08T12:11:04;97336.13;;;11.52;77.96
81897;BME280;71360;43.506;1.500;2024-03-08T12:13:33;97338.25;;;11.58;77.39
81897;BME280;71360;43.506;1.500;2024-03-08T12:16:00;97327.44;;;11.60;77.65
81897;BME280;71360;43.506;1.500;2024-03-08T12:18:33;97317.31;;;11.63;77.79
81897;BME280;71360;43.506;1.500;2024-03-08T12:21:10;97308.88;;;11.68;77.20
81897;BME280;71360;43.506;1.500;2024-03-08T12:23:37;97311.03;;;11.74;76.97
81897;BME280;71360;43.506;1.500;2024-03-08T12:26:14;97321.47;;;11.77;76.52
81897;BME280;71360;43.506;1.500;2024-03-08T12:28:41;97322.78;;;11.83;76.36
81897;BME280;71360;43.506;1.500;2024-03-08T12:31:11;97315.06;;;11.90;76.17
81897;BME280;71360;43.506;1.500;2024-03-08T12:33:54;97330.50;;;11.97;75.69
81897;BME280;71360;43.506;1.500;2024-03-08T12:36:21;97322.06;;;12.02;75.71
81897;BME280;71360;43.506;1.500;2024-03-08T12:38:47;97305.75;;;12.05;75.56
81897;BME280;71360;43.506;1.500;2024-03-08T12:41:19;97314.34;;;12.09;74.86
81897;BME280;71360;43.506;1.500;2024-03-08T12:43:46;97313.09;;;12.13;74.67
81897;BME280;71360;43.506;1.500;2024-03-08T12:46:18;97317.09;;;12.19;75.32
81897;BME280;71360;43.506;1.500;2024-03-08T12:48:46;97314.81;;;12.24;75.00
81897;BME280;71360;43.506;1.500;2024-03-08T12:51:17;97317.94;;;12.29;74.35
81897;BME280;71360;43.506;1.500;2024-03-08T12:53:44;97310.34;;;12.34;73.91
81897;BME280;71360;43.506;1.500;2024-03-08T12:56:16;97304.47;;;12.40;74.18
81897;BME280;71360;43.506;1.500;2024-03-08T12:58:46;97307.56;;;12.45;73.60
81897;BME280;71360;43.506;1.500;2024-03-08T13:01:11;97291.66;;;12.54;73.85
81897;BME280;71360;43.506;1.500;2024-03-08T13:03:37;97280.25;;;12.61;73.78
81897;BME280;71360;43.506;1.500;2024-03-08T13:06:04;97285.63;;;12.71;73.97
81897;BME280;71360;43.506;1.500;2024-03-08T13:08:36;97291.84;;;12.81;73.16
81897;BME280;71360;43.506;1.500;2024-03-08T13:11:05;97293.69;;;12.91;73.05
81897;BME280;71360;43.506;1.500;2024-03-08T13:13:30;97292.97;;;12.98;72.28